Terminal Aerodrome Forecast
Issued by NWS Pittsburgh, PA

Home | Current Version | Previous Version | Text Only | Print | Product List | Glossary On
Versions: 1 2 3 4 5 6 7 8 9 10 11 12 13 14 15 16 17 18 19 20 21 22 23 24 25 26 27 28 29 30
000
FTUS41 KPBZ 251739
TAFPIT
TAF
KPIT 251739Z 2518/2624 22008KT P6SM VCSH BKN035
     FM260000 24005KT P6SM -SHRA OVC030
     FM260400 24005KT 4SM -SHRA BR OVC004
     FM261200 27008KT P6SM VCSH OVC006
     FM261800 27009KT P6SM BKN010
     FM262100 28009KT P6SM BKN050=

USA.gov is the U.S. government's official web portal to all federal, state and local government web resources and services.